DEPPU VNPL-VNLK
Flight info
| Callsign | DEPPU |
|---|---|
| Flight time | 0h 22m |
| Altitude | 14500 |
| Route | VFR |
| Aircraft | B36T/L-S/S |
Departure
| Time | 2026-05-07 10:43 |
|---|---|
| Airport | Phaplu Airport (VNPL) |
Arrival
| Time | 2026-05-07 11:05 |
|---|---|
| Airport | Tenzing-Hillary Airport (VNLK) |
| Time | Latitude | Longitude | Altitude | Speed | Heading |
|---|---|---|---|---|---|
| 2026-05-07 10:35 | 27.51658 | 86.58485 | 8090 ft | 0 kts | 202° |
| 2026-05-07 10:40 | 27.51638 | 86.58463 | 8090 ft | 4 kts | 232° |
| 2026-05-07 10:41 | 27.51630 | 86.58454 | 8089 ft | 0 kts | 239° |
| 2026-05-07 10:41 | 27.51670 | 86.58451 | 8086 ft | 19 kts | 24° |
| 2026-05-07 10:41 | 27.51861 | 86.58541 | 8068 ft | 39 kts | 23° |
| 2026-05-07 10:41 | 27.52063 | 86.58623 | 8053 ft | 21 kts | 36° |
| 2026-05-07 10:42 | 27.52068 | 86.58647 | 8046 ft | 1 kts | 202° |
| 2026-05-07 10:42 | 27.51920 | 86.58573 | 8064 ft | 56 kts | 202° |
| 2026-05-07 10:42 | 27.51382 | 86.58320 | 8146 ft | 106 kts | 202° |
| 2026-05-07 10:42 | 27.50602 | 86.57913 | 8417 ft | 133 kts | 207° |
| 2026-05-07 10:43 | 27.49708 | 86.57429 | 8704 ft | 151 kts | 205° |
| 2026-05-07 10:43 | 27.48657 | 86.57183 | 9010 ft | 163 kts | 169° |
| 2026-05-07 10:43 | 27.47717 | 86.57892 | 9367 ft | 170 kts | 124° |
| 2026-05-07 10:43 | 27.47346 | 86.59157 | 9762 ft | 171 kts | 112° |
| 2026-05-07 10:44 | 27.46623 | 86.60199 | 10141 ft | 170 kts | 135° |
| 2026-05-07 10:44 | 27.45783 | 86.61147 | 10517 ft | 172 kts | 137° |
| 2026-05-07 10:44 | 27.44916 | 86.62085 | 10876 ft | 173 kts | 138° |
| 2026-05-07 10:44 | 27.44036 | 86.63015 | 11239 ft | 174 kts | 138° |
| 2026-05-07 10:45 | 27.43156 | 86.63934 | 11539 ft | 175 kts | 139° |
| 2026-05-07 10:45 | 27.42408 | 86.65012 | 11908 ft | 178 kts | 109° |
| 2026-05-07 10:45 | 27.42446 | 86.66383 | 12273 ft | 179 kts | 65° |
| 2026-05-07 10:45 | 27.43284 | 86.67353 | 12645 ft | 176 kts | 21° |
| 2026-05-07 10:46 | 27.44457 | 86.67688 | 13103 ft | 174 kts | 9° |
| 2026-05-07 10:46 | 27.45653 | 86.67872 | 13484 ft | 173 kts | 6° |
| 2026-05-07 10:46 | 27.46847 | 86.68011 | 13884 ft | 172 kts | 4° |
| 2026-05-07 10:46 | 27.48046 | 86.68112 | 14270 ft | 172 kts | 4° |
| 2026-05-07 10:47 | 27.49237 | 86.68209 | 14657 ft | 171 kts | 4° |
| 2026-05-07 10:47 | 27.50427 | 86.68310 | 15006 ft | 171 kts | 4° |
| 2026-05-07 10:47 | 27.51602 | 86.68420 | 15315 ft | 171 kts | 4° |
| 2026-05-07 10:47 | 27.52790 | 86.68550 | 15647 ft | 172 kts | 4° |
| 2026-05-07 10:48 | 27.53977 | 86.68689 | 16006 ft | 171 kts | 4° |
| 2026-05-07 10:48 | 27.55156 | 86.68833 | 16357 ft | 170 kts | 4° |
| 2026-05-07 10:48 | 27.56332 | 86.68968 | 16769 ft | 169 kts | 4° |
| 2026-05-07 10:48 | 27.57506 | 86.69106 | 17152 ft | 170 kts | 4° |
| 2026-05-07 10:49 | 27.58690 | 86.69255 | 17531 ft | 173 kts | 4° |
| 2026-05-07 10:49 | 27.59888 | 86.69404 | 17924 ft | 175 kts | 4° |
| 2026-05-07 10:49 | 27.61102 | 86.69573 | 18322 ft | 176 kts | 4° |
| 2026-05-07 10:49 | 27.62326 | 86.69741 | 18690 ft | 177 kts | 5° |
| 2026-05-07 10:50 | 27.63556 | 86.69910 | 19035 ft | 179 kts | 4° |
| 2026-05-07 10:50 | 27.64775 | 86.70093 | 19356 ft | 180 kts | 5° |
| 2026-05-07 10:50 | 27.66001 | 86.70399 | 19701 ft | 184 kts | 22° |
| 2026-05-07 10:50 | 27.67177 | 86.71077 | 19902 ft | 196 kts | 24° |
| 2026-05-07 10:51 | 27.68409 | 86.71816 | 20022 ft | 206 kts | 25° |
| 2026-05-07 10:51 | 27.69692 | 86.72617 | 20072 ft | 216 kts | 25° |
| 2026-05-07 10:51 | 27.71030 | 86.73448 | 20097 ft | 223 kts | 26° |
| 2026-05-07 10:51 | 27.72406 | 86.74303 | 20099 ft | 228 kts | 26° |
| 2026-05-07 10:52 | 27.73809 | 86.75177 | 20111 ft | 232 kts | 27° |
| 2026-05-07 10:52 | 27.75229 | 86.76058 | 20096 ft | 234 kts | 26° |
| 2026-05-07 10:52 | 27.76644 | 86.76940 | 20353 ft | 224 kts | 26° |
| 2026-05-07 10:52 | 27.77931 | 86.77816 | 20852 ft | 210 kts | 40° |
| 2026-05-07 10:53 | 27.78553 | 86.78633 | 21161 ft | 203 kts | 52° |
| 2026-05-07 10:53 | 27.79323 | 86.79889 | 21556 ft | 187 kts | 55° |
| 2026-05-07 10:53 | 27.80013 | 86.81119 | 21948 ft | 188 kts | 56° |
| 2026-05-07 10:53 | 27.80689 | 86.82401 | 22218 ft | 192 kts | 56° |
| 2026-05-07 10:54 | 27.81358 | 86.83727 | 22454 ft | 196 kts | 57° |
| 2026-05-07 10:54 | 27.82035 | 86.85071 | 22717 ft | 198 kts | 57° |
| 2026-05-07 10:54 | 27.82724 | 86.86439 | 23001 ft | 202 kts | 57° |
| 2026-05-07 10:54 | 27.83410 | 86.87829 | 23283 ft | 204 kts | 57° |
| 2026-05-07 10:55 | 27.84103 | 86.89249 | 23566 ft | 207 kts | 57° |
| 2026-05-07 10:55 | 27.84787 | 86.90683 | 23819 ft | 207 kts | 57° |
| 2026-05-07 10:55 | 27.85476 | 86.92137 | 23970 ft | 213 kts | 57° |
| 2026-05-07 10:55 | 27.86192 | 86.93643 | 24037 ft | 222 kts | 57° |
| 2026-05-07 10:56 | 27.87098 | 86.95052 | 24083 ft | 222 kts | 33° |
| 2026-05-07 10:56 | 27.88496 | 86.95742 | 23788 ft | 224 kts | 1° |
| 2026-05-07 10:56 | 27.89946 | 86.95466 | 23281 ft | 201 kts | 327° |
| 2026-05-07 10:56 | 27.90918 | 86.94503 | 22778 ft | 177 kts | 302° |
| 2026-05-07 10:57 | 27.91179 | 86.93234 | 22247 ft | 166 kts | 263° |
| 2026-05-07 10:57 | 27.90964 | 86.91958 | 21739 ft | 165 kts | 258° |
| 2026-05-07 10:57 | 27.90684 | 86.90701 | 21259 ft | 164 kts | 255° |
| 2026-05-07 10:57 | 27.90162 | 86.89478 | 20787 ft | 187 kts | 242° |
| 2026-05-07 10:58 | 27.89469 | 86.88131 | 20321 ft | 206 kts | 240° |
| 2026-05-07 10:58 | 27.88717 | 86.86711 | 19855 ft | 211 kts | 240° |
| 2026-05-07 10:58 | 27.87970 | 86.85294 | 19398 ft | 209 kts | 239° |
| 2026-05-07 10:58 | 27.87230 | 86.83883 | 18939 ft | 208 kts | 239° |
| 2026-05-07 10:59 | 27.86511 | 86.82487 | 18505 ft | 207 kts | 239° |
| 2026-05-07 10:59 | 27.85801 | 86.81080 | 18034 ft | 205 kts | 239° |
| 2026-05-07 10:59 | 27.85089 | 86.79683 | 17524 ft | 204 kts | 239° |
| 2026-05-07 10:59 | 27.84397 | 86.78288 | 16972 ft | 204 kts | 239° |
| 2026-05-07 11:00 | 27.83711 | 86.76893 | 16451 ft | 201 kts | 239° |
| 2026-05-07 11:00 | 27.83036 | 86.75513 | 16043 ft | 200 kts | 240° |
| 2026-05-07 11:00 | 27.82362 | 86.74207 | 15333 ft | 180 kts | 236° |
| 2026-05-07 11:00 | 27.81487 | 86.73340 | 14288 ft | 166 kts | 190° |
| 2026-05-07 11:01 | 27.80349 | 86.73424 | 13135 ft | 163 kts | 181° |
| 2026-05-07 11:01 | 27.79569 | 86.72816 | 12609 ft | 129 kts | 264° |
| 2026-05-07 11:01 | 27.80067 | 86.72165 | 12272 ft | 111 kts | 333° |
| 2026-05-07 11:01 | 27.80743 | 86.71693 | 12270 ft | 124 kts | 311° |
| 2026-05-07 11:02 | 27.81374 | 86.70862 | 12581 ft | 128 kts | 291° |
| 2026-05-07 11:02 | 27.81211 | 86.70137 | 13179 ft | 121 kts | 197° |
| 2026-05-07 11:02 | 27.80206 | 86.70502 | 12926 ft | 177 kts | 156° |
| 2026-05-07 11:02 | 27.79009 | 86.71060 | 12664 ft | 191 kts | 161° |
| 2026-05-07 11:03 | 27.77673 | 86.71368 | 12000 ft | 204 kts | 178° |
| 2026-05-07 11:03 | 27.76325 | 86.71230 | 11598 ft | 185 kts | 185° |
| 2026-05-07 11:03 | 27.75056 | 86.71108 | 11283 ft | 181 kts | 183° |
| 2026-05-07 11:03 | 27.73812 | 86.71027 | 10889 ft | 178 kts | 181° |
| 2026-05-07 11:04 | 27.72560 | 86.70999 | 10534 ft | 182 kts | 180° |
| 2026-05-07 11:04 | 27.71310 | 86.70928 | 10188 ft | 171 kts | 182° |
| 2026-05-07 11:04 | 27.70194 | 86.70864 | 9847 ft | 150 kts | 180° |
| 2026-05-07 11:04 | 27.69230 | 86.70839 | 9539 ft | 128 kts | 178° |
| 2026-05-07 11:05 | 27.68453 | 86.71074 | 9415 ft | 111 kts | 141° |
| 2026-05-07 11:05 | 27.68087 | 86.71802 | 9506 ft | 110 kts | 89° |
| 2026-05-07 11:05 | 27.68486 | 86.72590 | 9255 ft | 119 kts | 54° |
| 2026-05-07 11:05 | 27.68779 | 86.73143 | 9448 ft | 23 kts | 62° |
| 2026-05-07 11:06 | 27.68784 | 86.73153 | 9450 ft | 0 kts | 76° |
| 2026-05-07 11:06 | 27.68741 | 86.73167 | 9452 ft | 15 kts | 156° |
| 2026-05-07 11:06 | 27.68739 | 86.73186 | 9451 ft | 0 kts | 246° |
| 2026-05-07 11:06 | 27.68743 | 86.73193 | 9452 ft | 4 kts | 240° |
| 2026-05-07 11:07 | 27.68745 | 86.73200 | 9452 ft | 0 kts | 245° |